sensor_id;sensor_type;location;lat;lon;timestamp;P1;durP1;ratioP1;P2;durP2;ratioP2
16766;SDS011;8501;49.926;8.404;2023-02-01T00:01:41;9.00;;;5.53;;
16766;SDS011;8501;49.926;8.404;2023-02-01T00:04:07;7.17;;;5.17;;
16766;SDS011;8501;49.926;8.404;2023-02-01T00:06:32;9.40;;;5.30;;
16766;SDS011;8501;49.926;8.404;2023-02-01T00:08:58;8.90;;;5.73;;
16766;SDS011;8501;49.926;8.404;2023-02-01T00:11:24;7.97;;;5.67;;
16766;SDS011;8501;49.926;8.404;2023-02-01T00:13:50;9.10;;;5.57;;
16766;SDS011;8501;49.926;8.404;2023-02-01T00:18:47;10.20;;;6.17;;
16766;SDS011;8501;49.926;8.404;2023-02-01T00:21:15;8.77;;;6.10;;
16766;SDS011;8501;49.926;8.404;2023-02-01T00:23:42;9.73;;;6.50;;
16766;SDS011;8501;49.926;8.404;2023-02-01T00:26:12;9.63;;;6.00;;
16766;SDS011;8501;49.926;8.404;2023-02-01T00:28:44;9.87;;;6.50;;
16766;SDS011;8501;49.926;8.404;2023-02-01T00:31:10;9.97;;;6.40;;
16766;SDS011;8501;49.926;8.404;2023-02-01T00:33:35;12.10;;;6.30;;
16766;SDS011;8501;49.926;8.404;2023-02-01T00:36:02;10.03;;;6.50;;
16766;SDS011;8501;49.926;8.404;2023-02-01T00:38:30;10.33;;;6.43;;
16766;SDS011;8501;49.926;8.404;2023-02-01T00:41:03;10.93;;;6.20;;
16766;SDS011;8501;49.926;8.404;2023-02-01T00:43:34;11.00;;;6.73;;
16766;SDS011;8501;49.926;8.404;2023-02-01T00:45:59;11.87;;;6.60;;
16766;SDS011;8501;49.926;8.404;2023-02-01T00:48:26;12.27;;;6.50;;
16766;SDS011;8501;49.926;8.404;2023-02-01T00:50:52;9.53;;;6.40;;
16766;SDS011;8501;49.926;8.404;2023-02-01T00:53:17;9.17;;;6.60;;
16766;SDS011;8501;49.926;8.404;2023-02-01T00:55:46;10.03;;;6.70;;
16766;SDS011;8501;49.926;8.404;2023-02-01T00:58:12;9.67;;;6.27;;
16766;SDS011;8501;49.926;8.404;2023-02-01T01:00:38;11.33;;;7.23;;
16766;SDS011;8501;49.926;8.404;2023-02-01T01:03:04;12.60;;;7.17;;
16766;SDS011;8501;49.926;8.404;2023-02-01T01:05:43;9.53;;;6.90;;
16766;SDS011;8501;49.926;8.404;2023-02-01T01:08:12;12.10;;;6.87;;
16766;SDS011;8501;49.926;8.404;2023-02-01T01:10:38;11.27;;;6.73;;
16766;SDS011;8501;49.926;8.404;2023-02-01T01:13:03;10.40;;;6.83;;
16766;SDS011;8501;49.926;8.404;2023-02-01T01:15:29;10.03;;;6.90;;
16766;SDS011;8501;49.926;8.404;2023-02-01T01:17:55;12.13;;;7.40;;
16766;SDS011;8501;49.926;8.404;2023-02-01T01:20:20;11.03;;;7.07;;
16766;SDS011;8501;49.926;8.404;2023-02-01T01:22:48;12.83;;;7.13;;
16766;SDS011;8501;49.926;8.404;2023-02-01T01:25:14;12.20;;;7.50;;
16766;SDS011;8501;49.926;8.404;2023-02-01T01:27:40;11.57;;;7.20;;
16766;SDS011;8501;49.926;8.404;2023-02-01T01:30:05;14.30;;;7.50;;
16766;SDS011;8501;49.926;8.404;2023-02-01T01:32:32;11.47;;;7.00;;
16766;SDS011;8501;49.926;8.404;2023-02-01T01:34:58;15.23;;;7.70;;
16766;SDS011;8501;49.926;8.404;2023-02-01T01:37:23;13.00;;;7.10;;
16766;SDS011;8501;49.926;8.404;2023-02-01T01:39:49;11.47;;;7.77;;
16766;SDS011;8501;49.926;8.404;2023-02-01T01:42:14;12.63;;;7.70;;
16766;SDS011;8501;49.926;8.404;2023-02-01T01:47:31;13.00;;;7.90;;
16766;SDS011;8501;49.926;8.404;2023-02-01T01:50:10;15.13;;;8.20;;
16766;SDS011;8501;49.926;8.404;2023-02-01T01:52:38;14.77;;;8.30;;
16766;SDS011;8501;49.926;8.404;2023-02-01T01:55:06;14.63;;;8.10;;
16766;SDS011;8501;49.926;8.404;2023-02-01T01:57:33;13.13;;;7.73;;
16766;SDS011;8501;49.926;8.404;2023-02-01T02:00:13;16.10;;;8.33;;
16766;SDS011;8501;49.926;8.404;2023-02-01T02:02:41;14.40;;;7.80;;
16766;SDS011;8501;49.926;8.404;2023-02-01T02:05:09;13.20;;;7.80;;
16766;SDS011;8501;49.926;8.404;2023-02-01T02:07:37;14.77;;;8.37;;
16766;SDS011;8501;49.926;8.404;2023-02-01T02:10:06;15.53;;;8.57;;
16766;SDS011;8501;49.926;8.404;2023-02-01T02:12:35;15.33;;;9.17;;
16766;SDS011;8501;49.926;8.404;2023-02-01T02:15:04;12.73;;;8.13;;
16766;SDS011;8501;49.926;8.404;2023-02-01T02:17:44;14.60;;;8.70;;
16766;SDS011;8501;49.926;8.404;2023-02-01T02:20:45;14.07;;;8.30;;
16766;SDS011;8501;49.926;8.404;2023-02-01T02:23:35;17.73;;;9.00;;
16766;SDS011;8501;49.926;8.404;2023-02-01T02:29:02;17.03;;;8.47;;
16766;SDS011;8501;49.926;8.404;2023-02-01T02:31:36;18.50;;;9.30;;
16766;SDS011;8501;49.926;8.404;2023-02-01T02:40:05;16.23;;;8.93;;
16766;SDS011;8501;49.926;8.404;2023-02-01T02:45:51;17.07;;;8.73;;
16766;SDS011;8501;49.926;8.404;2023-02-01T02:49:09;19.07;;;9.50;;
16766;SDS011;8501;49.926;8.404;2023-02-01T02:52:13;16.30;;;9.27;;
16766;SDS011;8501;49.926;8.404;2023-02-01T02:55:01;19.30;;;10.17;;
16766;SDS011;8501;49.926;8.404;2023-02-01T02:57:30;20.87;;;10.00;;
16766;SDS011;8501;49.926;8.404;2023-02-01T03:00:18;19.23;;;9.73;;
16766;SDS011;8501;49.926;8.404;2023-02-01T03:03:05;19.10;;;9.83;;
16766;SDS011;8501;49.926;8.404;2023-02-01T03:05:50;19.27;;;9.77;;
16766;SDS011;8501;49.926;8.404;2023-02-01T03:08:17;19.77;;;10.30;;
16766;SDS011;8501;49.926;8.404;2023-02-01T03:10:47;16.80;;;9.97;;
16766;SDS011;8501;49.926;8.404;2023-02-01T03:13:19;16.50;;;9.27;;
16766;SDS011;8501;49.926;8.404;2023-02-01T03:15:53;16.63;;;9.10;;
16766;SDS011;8501;49.926;8.404;2023-02-01T03:18:30;18.53;;;9.47;;
16766;SDS011;8501;49.926;8.404;2023-02-01T03:21:01;17.37;;;9.50;;
16766;SDS011;8501;49.926;8.404;2023-02-01T03:23:32;16.80;;;9.27;;
16766;SDS011;8501;49.926;8.404;2023-02-01T03:25:59;16.50;;;8.97;;
16766;SDS011;8501;49.926;8.404;2023-02-01T03:28:29;16.37;;;8.83;;
16766;SDS011;8501;49.926;8.404;2023-02-01T03:30:58;15.87;;;8.20;;
16766;SDS011;8501;49.926;8.404;2023-02-01T03:33:25;18.67;;;8.90;;
16766;SDS011;8501;49.926;8.404;2023-02-01T03:35:54;17.10;;;8.40;;
16766;SDS011;8501;49.926;8.404;2023-02-01T03:38:27;16.33;;;7.73;;
16766;SDS011;8501;49.926;8.404;2023-02-01T03:41:12;13.43;;;7.43;;
16766;SDS011;8501;49.926;8.404;2023-02-01T03:46:30;15.50;;;8.13;;
16766;SDS011;8501;49.926;8.404;2023-02-01T03:49:01;14.40;;;7.57;;
16766;SDS011;8501;49.926;8.404;2023-02-01T03:51:30;13.00;;;7.47;;
16766;SDS011;8501;49.926;8.404;2023-02-01T03:53:57;11.63;;;7.40;;
16766;SDS011;8501;49.926;8.404;2023-02-01T03:56:24;15.23;;;7.70;;
16766;SDS011;8501;49.926;8.404;2023-02-01T03:58:52;13.17;;;7.30;;
16766;SDS011;8501;49.926;8.404;2023-02-01T04:01:27;12.67;;;6.77;;
16766;SDS011;8501;49.926;8.404;2023-02-01T04:03:54;14.57;;;7.53;;
16766;SDS011;8501;49.926;8.404;2023-02-01T04:06:20;15.27;;;7.10;;
16766;SDS011;8501;49.926;8.404;2023-02-01T04:08:45;13.87;;;7.17;;
16766;SDS011;8501;49.926;8.404;2023-02-01T04:11:11;12.57;;;6.53;;
16766;SDS011;8501;49.926;8.404;2023-02-01T04:13:37;13.13;;;6.70;;
16766;SDS011;8501;49.926;8.404;2023-02-01T04:16:03;12.77;;;6.93;;
16766;SDS011;8501;49.926;8.404;2023-02-01T04:18:28;11.20;;;6.37;;
16766;SDS011;8501;49.926;8.404;2023-02-01T04:20:54;12.67;;;6.97;;
16766;SDS011;8501;49.926;8.404;2023-02-01T04:23:19;12.97;;;6.30;;
16766;SDS011;8501;49.926;8.404;2023-02-01T04:25:45;12.17;;;6.70;;
16766;SDS011;8501;49.926;8.404;2023-02-01T04:28:11;10.70;;;6.30;;
16766;SDS011;8501;49.926;8.404;2023-02-01T04:30:36;10.17;;;6.13;;
16766;SDS011;8501;49.926;8.404;2023-02-01T04:33:02;10.00;;;6.00;;
16766;SDS011;8501;49.926;8.404;2023-02-01T04:35:30;9.47;;;5.53;;
16766;SDS011;8501;49.926;8.404;2023-02-01T04:37:56;12.03;;;5.50;;
16766;SDS011;8501;49.926;8.404;2023-02-01T04:40:22;8.87;;;5.33;;
16766;SDS011;8501;49.926;8.404;2023-02-01T04:42:47;9.00;;;5.40;;
16766;SDS011;8501;49.926;8.404;2023-02-01T04:45:13;9.27;;;5.00;;
16766;SDS011;8501;49.926;8.404;2023-02-01T04:47:38;8.33;;;4.40;;
16766;SDS011;8501;49.926;8.404;2023-02-01T04:50:04;8.27;;;4.80;;
16766;SDS011;8501;49.926;8.404;2023-02-01T04:52:30;10.07;;;4.90;;
16766;SDS011;8501;49.926;8.404;2023-02-01T04:54:56;10.53;;;4.67;;
16766;SDS011;8501;49.926;8.404;2023-02-01T04:57:24;9.00;;;4.90;;
16766;SDS011;8501;49.926;8.404;2023-02-01T04:59:50;7.23;;;4.10;;
16766;SDS011;8501;49.926;8.404;2023-02-01T05:02:15;7.20;;;4.23;;
16766;SDS011;8501;49.926;8.404;2023-02-01T05:04:41;8.87;;;4.37;;
16766;SDS011;8501;49.926;8.404;2023-02-01T05:07:06;6.33;;;4.27;;
16766;SDS011;8501;49.926;8.404;2023-02-01T05:09:32;7.40;;;4.30;;
16766;SDS011;8501;49.926;8.404;2023-02-01T05:11:57;9.57;;;4.83;;
16766;SDS011;8501;49.926;8.404;2023-02-01T05:14:42;8.67;;;4.10;;
16766;SDS011;8501;49.926;8.404;2023-02-01T05:17:07;6.97;;;4.47;;
16766;SDS011;8501;49.926;8.404;2023-02-01T05:19:33;7.37;;;4.30;;
16766;SDS011;8501;49.926;8.404;2023-02-01T05:21:58;9.43;;;4.00;;
16766;SDS011;8501;49.926;8.404;2023-02-01T05:24:24;9.60;;;4.00;;
16766;SDS011;8501;49.926;8.404;2023-02-01T05:26:49;11.80;;;4.33;;
16766;SDS011;8501;49.926;8.404;2023-02-01T05:29:16;8.07;;;4.03;;
16766;SDS011;8501;49.926;8.404;2023-02-01T05:31:43;9.27;;;4.33;;
16766;SDS011;8501;49.926;8.404;2023-02-01T05:34:13;9.27;;;3.73;;
16766;SDS011;8501;49.926;8.404;2023-02-01T05:36:39;10.23;;;3.93;;
16766;SDS011;8501;49.926;8.404;2023-02-01T05:39:05;10.53;;;3.33;;
16766;SDS011;8501;49.926;8.404;2023-02-01T05:41:31;8.40;;;3.07;;
16766;SDS011;8501;49.926;8.404;2023-02-01T05:43:56;8.97;;;3.23;;
16766;SDS011;8501;49.926;8.404;2023-02-01T05:46:22;5.83;;;2.40;;
16766;SDS011;8501;49.926;8.404;2023-02-01T05:48:47;8.27;;;2.53;;
16766;SDS011;8501;49.926;8.404;2023-02-01T05:51:13;4.20;;;2.20;;
16766;SDS011;8501;49.926;8.404;2023-02-01T05:53:39;5.30;;;2.00;;
16766;SDS011;8501;49.926;8.404;2023-02-01T05:56:04;6.30;;;2.27;;
16766;SDS011;8501;49.926;8.404;2023-02-01T05:58:30;3.40;;;1.87;;
16766;SDS011;8501;49.926;8.404;2023-02-01T06:00:58;4.47;;;2.17;;
16766;SDS011;8501;49.926;8.404;2023-02-01T06:03:25;4.07;;;2.30;;
16766;SDS011;8501;49.926;8.404;2023-02-01T06:05:50;4.77;;;2.07;;
16766;SDS011;8501;49.926;8.404;2023-02-01T06:08:16;5.40;;;2.43;;
16766;SDS011;8501;49.926;8.404;2023-02-01T06:10:42;4.43;;;1.80;;
16766;SDS011;8501;49.926;8.404;2023-02-01T06:13:07;4.60;;;2.10;;
16766;SDS011;8501;49.926;8.404;2023-02-01T06:15:34;3.03;;;1.90;;
16766;SDS011;8501;49.926;8.404;2023-02-01T06:18:02;3.43;;;2.10;;
16766;SDS011;8501;49.926;8.404;2023-02-01T06:20:28;6.27;;;2.27;;
16766;SDS011;8501;49.926;8.404;2023-02-01T06:22:53;7.40;;;2.73;;
16766;SDS011;8501;49.926;8.404;2023-02-01T06:25:19;4.90;;;2.40;;
16766;SDS011;8501;49.926;8.404;2023-02-01T06:27:45;4.93;;;2.00;;
16766;SDS011;8501;49.926;8.404;2023-02-01T06:30:11;4.50;;;2.50;;
16766;SDS011;8501;49.926;8.404;2023-02-01T06:32:40;6.10;;;2.80;;
16766;SDS011;8501;49.926;8.404;2023-02-01T06:35:07;5.50;;;2.83;;
16766;SDS011;8501;49.926;8.404;2023-02-01T06:37:36;5.67;;;2.67;;
16766;SDS011;8501;49.926;8.404;2023-02-01T06:40:02;6.47;;;3.10;;
16766;SDS011;8501;49.926;8.404;2023-02-01T06:42:28;6.83;;;3.33;;
16766;SDS011;8501;49.926;8.404;2023-02-01T06:44:54;6.90;;;3.43;;
16766;SDS011;8501;49.926;8.404;2023-02-01T06:47:20;7.07;;;3.10;;
16766;SDS011;8501;49.926;8.404;2023-02-01T06:49:45;8.17;;;3.50;;
16766;SDS011;8501;49.926;8.404;2023-02-01T06:52:11;8.37;;;3.33;;
16766;SDS011;8501;49.926;8.404;2023-02-01T06:54:37;9.17;;;3.50;;
16766;SDS011;8501;49.926;8.404;2023-02-01T06:57:03;7.63;;;3.27;;
16766;SDS011;8501;49.926;8.404;2023-02-01T06:59:28;9.97;;;3.00;;
16766;SDS011;8501;49.926;8.404;2023-02-01T07:01:54;11.53;;;3.10;;
16766;SDS011;8501;49.926;8.404;2023-02-01T07:04:19;8.80;;;3.10;;
16766;SDS011;8501;49.926;8.404;2023-02-01T07:06:45;6.10;;;3.07;;
16766;SDS011;8501;49.926;8.404;2023-02-01T07:09:11;7.27;;;3.10;;
16766;SDS011;8501;49.926;8.404;2023-02-01T07:11:38;8.80;;;3.10;;
16766;SDS011;8501;49.926;8.404;2023-02-01T07:14:08;6.60;;;3.27;;
16766;SDS011;8501;49.926;8.404;2023-02-01T07:16:34;12.57;;;3.07;;
16766;SDS011;8501;49.926;8.404;2023-02-01T07:18:59;7.27;;;3.90;;
16766;SDS011;8501;49.926;8.404;2023-02-01T07:21:25;8.47;;;4.63;;
16766;SDS011;8501;49.926;8.404;2023-02-01T07:23:52;8.23;;;3.50;;
16766;SDS011;8501;49.926;8.404;2023-02-01T07:26:18;11.17;;;3.27;;
16766;SDS011;8501;49.926;8.404;2023-02-01T07:28:44;9.27;;;3.70;;
16766;SDS011;8501;49.926;8.404;2023-02-01T07:31:12;7.80;;;3.60;;
16766;SDS011;8501;49.926;8.404;2023-02-01T07:33:40;7.17;;;3.40;;
16766;SDS011;8501;49.926;8.404;2023-02-01T07:36:07;7.97;;;3.90;;
16766;SDS011;8501;49.926;8.404;2023-02-01T07:38:37;11.30;;;3.70;;
16766;SDS011;8501;49.926;8.404;2023-02-01T07:41:03;10.17;;;3.60;;
16766;SDS011;8501;49.926;8.404;2023-02-01T07:43:30;8.67;;;3.87;;
16766;SDS011;8501;49.926;8.404;2023-02-01T07:45:58;10.90;;;4.23;;
16766;SDS011;8501;49.926;8.404;2023-02-01T07:48:24;10.50;;;4.10;;
16766;SDS011;8501;49.926;8.404;2023-02-01T07:51:03;11.90;;;4.00;;
16766;SDS011;8501;49.926;8.404;2023-02-01T07:53:37;10.83;;;4.07;;
16766;SDS011;8501;49.926;8.404;2023-02-01T07:56:08;8.77;;;4.10;;
16766;SDS011;8501;49.926;8.404;2023-02-01T07:58:39;13.93;;;4.70;;
16766;SDS011;8501;49.926;8.404;2023-02-01T08:01:05;14.23;;;4.13;;
16766;SDS011;8501;49.926;8.404;2023-02-01T08:03:56;12.07;;;4.27;;
16766;SDS011;8501;49.926;8.404;2023-02-01T08:06:24;10.97;;;4.17;;
16766;SDS011;8501;49.926;8.404;2023-02-01T08:08:50;13.47;;;4.27;;
16766;SDS011;8501;49.926;8.404;2023-02-01T08:11:16;14.30;;;4.87;;
16766;SDS011;8501;49.926;8.404;2023-02-01T08:13:44;12.63;;;3.87;;
16766;SDS011;8501;49.926;8.404;2023-02-01T08:16:10;14.70;;;5.23;;
16766;SDS011;8501;49.926;8.404;2023-02-01T08:18:37;12.37;;;4.50;;
16766;SDS011;8501;49.926;8.404;2023-02-01T08:21:04;12.67;;;3.97;;
16766;SDS011;8501;49.926;8.404;2023-02-01T08:23:38;10.27;;;4.40;;
16766;SDS011;8501;49.926;8.404;2023-02-01T08:26:06;13.77;;;3.83;;
16766;SDS011;8501;49.926;8.404;2023-02-01T08:28:43;11.57;;;4.20;;
16766;SDS011;8501;49.926;8.404;2023-02-01T08:31:15;11.77;;;4.97;;
16766;SDS011;8501;49.926;8.404;2023-02-01T08:33:43;16.77;;;4.73;;
16766;SDS011;8501;49.926;8.404;2023-02-01T08:36:09;7.90;;;3.73;;
16766;SDS011;8501;49.926;8.404;2023-02-01T08:38:36;12.77;;;4.90;;
16766;SDS011;8501;49.926;8.404;2023-02-01T08:41:07;13.90;;;4.23;;
16766;SDS011;8501;49.926;8.404;2023-02-01T08:43:35;9.90;;;4.73;;
16766;SDS011;8501;49.926;8.404;2023-02-01T08:46:00;13.60;;;4.00;;
16766;SDS011;8501;49.926;8.404;2023-02-01T08:48:26;17.97;;;4.13;;
16766;SDS011;8501;49.926;8.404;2023-02-01T08:50:52;12.57;;;3.50;;
16766;SDS011;8501;49.926;8.404;2023-02-01T08:53:17;11.57;;;3.80;;
16766;SDS011;8501;49.926;8.404;2023-02-01T08:55:45;14.23;;;4.83;;
16766;SDS011;8501;49.926;8.404;2023-02-01T08:58:11;15.50;;;3.90;;
16766;SDS011;8501;49.926;8.404;2023-02-01T09:00:38;12.00;;;4.23;;
16766;SDS011;8501;49.926;8.404;2023-02-01T09:03:04;9.23;;;4.07;;
16766;SDS011;8501;49.926;8.404;2023-02-01T09:05:30;11.87;;;4.03;;
16766;SDS011;8501;49.926;8.404;2023-02-01T09:07:56;13.57;;;3.57;;
16766;SDS011;8501;49.926;8.404;2023-02-01T09:10:21;14.23;;;4.20;;
16766;SDS011;8501;49.926;8.404;2023-02-01T09:12:47;10.57;;;3.40;;
16766;SDS011;8501;49.926;8.404;2023-02-01T09:15:12;14.10;;;3.80;;
16766;SDS011;8501;49.926;8.404;2023-02-01T09:17:38;9.70;;;2.83;;
16766;SDS011;8501;49.926;8.404;2023-02-01T09:20:06;13.97;;;4.80;;
16766;SDS011;8501;49.926;8.404;2023-02-01T09:22:32;15.13;;;3.40;;
16766;SDS011;8501;49.926;8.404;2023-02-01T09:24:58;10.27;;;3.17;;
16766;SDS011;8501;49.926;8.404;2023-02-01T09:27:23;9.63;;;3.40;;
16766;SDS011;8501;49.926;8.404;2023-02-01T09:29:49;15.03;;;3.20;;
16766;SDS011;8501;49.926;8.404;2023-02-01T09:32:17;11.03;;;2.77;;
16766;SDS011;8501;49.926;8.404;2023-02-01T09:34:47;12.47;;;3.40;;
16766;SDS011;8501;49.926;8.404;2023-02-01T09:37:12;14.90;;;3.93;;
16766;SDS011;8501;49.926;8.404;2023-02-01T09:39:38;11.70;;;3.97;;
16766;SDS011;8501;49.926;8.404;2023-02-01T09:42:10;8.77;;;3.20;;
16766;SDS011;8501;49.926;8.404;2023-02-01T09:47:50;11.00;;;2.93;;
16766;SDS011;8501;49.926;8.404;2023-02-01T09:50:20;11.80;;;3.00;;
16766;SDS011;8501;49.926;8.404;2023-02-01T09:53:06;9.80;;;3.40;;
16766;SDS011;8501;49.926;8.404;2023-02-01T09:56:05;9.37;;;3.57;;
16766;SDS011;8501;49.926;8.404;2023-02-01T09:58:40;9.53;;;3.00;;
16766;SDS011;8501;49.926;8.404;2023-02-01T10:01:15;11.33;;;3.03;;
16766;SDS011;8501;49.926;8.404;2023-02-01T10:03:50;12.30;;;2.90;;
16766;SDS011;8501;49.926;8.404;2023-02-01T10:26:20;8.47;;;2.97;;
16766;SDS011;8501;49.926;8.404;2023-02-01T10:28:49;7.93;;;2.87;;
16766;SDS011;8501;49.926;8.404;2023-02-01T10:31:20;9.07;;;2.90;;
16766;SDS011;8501;49.926;8.404;2023-02-01T10:33:51;14.30;;;7.30;;
16766;SDS011;8501;49.926;8.404;2023-02-01T10:38:57;14.90;;;8.40;;
16766;SDS011;8501;49.926;8.404;2023-02-01T10:41:24;10.13;;;4.20;;
16766;SDS011;8501;49.926;8.404;2023-02-01T10:43:59;14.67;;;4.60;;
16766;SDS011;8501;49.926;8.404;2023-02-01T10:46:29;10.80;;;4.27;;
16766;SDS011;8501;49.926;8.404;2023-02-01T10:48:55;10.83;;;4.00;;
16766;SDS011;8501;49.926;8.404;2023-02-01T10:51:26;15.10;;;4.07;;
16766;SDS011;8501;49.926;8.404;2023-02-01T10:54:19;11.80;;;3.77;;
16766;SDS011;8501;49.926;8.404;2023-02-01T10:56:47;11.63;;;3.70;;
16766;SDS011;8501;49.926;8.404;2023-02-01T10:59:17;12.67;;;4.90;;
16766;SDS011;8501;49.926;8.404;2023-02-01T11:01:45;12.77;;;3.47;;
16766;SDS011;8501;49.926;8.404;2023-02-01T11:06:43;17.80;;;4.40;;
16766;SDS011;8501;49.926;8.404;2023-02-01T11:14:15;8.43;;;2.87;;
16766;SDS011;8501;49.926;8.404;2023-02-01T11:16:49;9.57;;;2.97;;
16766;SDS011;8501;49.926;8.404;2023-02-01T11:19:20;12.00;;;3.47;;
16766;SDS011;8501;49.926;8.404;2023-02-01T11:21:49;10.77;;;5.60;;
16766;SDS011;8501;49.926;8.404;2023-02-01T11:24:29;11.20;;;5.53;;
16766;SDS011;8501;49.926;8.404;2023-02-01T11:27:00;9.53;;;3.03;;
16766;SDS011;8501;49.926;8.404;2023-02-01T11:29:34;13.17;;;2.90;;
16766;SDS011;8501;49.926;8.404;2023-02-01T11:32:03;11.60;;;3.37;;
16766;SDS011;8501;49.926;8.404;2023-02-01T11:34:40;9.27;;;4.10;;
16766;SDS011;8501;49.926;8.404;2023-02-01T11:37:57;9.77;;;2.93;;
16766;SDS011;8501;49.926;8.404;2023-02-01T11:45:32;10.93;;;3.13;;
16766;SDS011;8501;49.926;8.404;2023-02-01T11:47:59;12.47;;;3.33;;
16766;SDS011;8501;49.926;8.404;2023-02-01T11:53:38;10.50;;;3.10;;
16766;SDS011;8501;49.926;8.404;2023-02-01T12:01:45;5.80;;;3.10;;
16766;SDS011;8501;49.926;8.404;2023-02-01T12:20:53;20.37;;;10.37;;
16766;SDS011;8501;49.926;8.404;2023-02-01T12:29:34;9.53;;;3.90;;
16766;SDS011;8501;49.926;8.404;2023-02-01T12:32:13;12.10;;;3.70;;
16766;SDS011;8501;49.926;8.404;2023-02-01T12:35:04;8.37;;;3.33;;
16766;SDS011;8501;49.926;8.404;2023-02-01T12:37:55;10.60;;;4.70;;
16766;SDS011;8501;49.926;8.404;2023-02-01T12:40:42;14.93;;;5.10;;
16766;SDS011;8501;49.926;8.404;2023-02-01T12:43:16;14.57;;;4.47;;
16766;SDS011;8501;49.926;8.404;2023-02-01T12:45:51;13.00;;;3.77;;
16766;SDS011;8501;49.926;8.404;2023-02-01T12:48:38;19.27;;;5.47;;
16766;SDS011;8501;49.926;8.404;2023-02-01T12:51:13;13.43;;;4.53;;
16766;SDS011;8501;49.926;8.404;2023-02-01T12:53:52;13.50;;;5.43;;
16766;SDS011;8501;49.926;8.404;2023-02-01T12:56:32;13.07;;;5.63;;
16766;SDS011;8501;49.926;8.404;2023-02-01T12:59:16;10.40;;;2.80;;
16766;SDS011;8501;49.926;8.404;2023-02-01T13:01:55;9.43;;;2.70;;
16766;SDS011;8501;49.926;8.404;2023-02-01T13:04:33;7.70;;;2.73;;
16766;SDS011;8501;49.926;8.404;2023-02-01T13:07:26;9.30;;;2.50;;
16766;SDS011;8501;49.926;8.404;2023-02-01T13:10:11;9.33;;;2.53;;
16766;SDS011;8501;49.926;8.404;2023-02-01T13:12:52;7.63;;;2.50;;
16766;SDS011;8501;49.926;8.404;2023-02-01T13:15:29;13.73;;;4.67;;
16766;SDS011;8501;49.926;8.404;2023-02-01T13:18:00;10.53;;;3.70;;
16766;SDS011;8501;49.926;8.404;2023-02-01T13:20:29;9.93;;;2.90;;
16766;SDS011;8501;49.926;8.404;2023-02-01T13:23:24;12.17;;;2.47;;
16766;SDS011;8501;49.926;8.404;2023-02-01T13:25:55;9.17;;;2.90;;
16766;SDS011;8501;49.926;8.404;2023-02-01T13:28:39;10.67;;;3.20;;
16766;SDS011;8501;49.926;8.404;2023-02-01T13:45:50;9.83;;;2.30;;
16766;SDS011;8501;49.926;8.404;2023-02-01T13:48:20;16.97;;;5.63;;
16766;SDS011;8501;49.926;8.404;2023-02-01T13:51:07;12.13;;;6.10;;
16766;SDS011;8501;49.926;8.404;2023-02-01T13:53:36;9.77;;;3.00;;
16766;SDS011;8501;49.926;8.404;2023-02-01T13:56:09;12.40;;;3.13;;
16766;SDS011;8501;49.926;8.404;2023-02-01T13:58:40;19.70;;;9.20;;
16766;SDS011;8501;49.926;8.404;2023-02-01T14:03:54;7.00;;;2.83;;
16766;SDS011;8501;49.926;8.404;2023-02-01T14:16:42;8.87;;;3.07;;
16766;SDS011;8501;49.926;8.404;2023-02-01T14:19:23;8.33;;;3.33;;
16766;SDS011;8501;49.926;8.404;2023-02-01T14:21:50;11.93;;;3.37;;
16766;SDS011;8501;49.926;8.404;2023-02-01T14:24:25;9.57;;;2.30;;
16766;SDS011;8501;49.926;8.404;2023-02-01T14:26:55;9.93;;;2.53;;
16766;SDS011;8501;49.926;8.404;2023-02-01T14:29:26;8.30;;;3.30;;
16766;SDS011;8501;49.926;8.404;2023-02-01T14:55:42;29.97;;;13.67;;
16766;SDS011;8501;49.926;8.404;2023-02-01T15:01:00;27.50;;;12.37;;
16766;SDS011;8501;49.926;8.404;2023-02-01T15:06:29;7.40;;;3.00;;
16766;SDS011;8501;49.926;8.404;2023-02-01T15:09:04;11.47;;;2.97;;
16766;SDS011;8501;49.926;8.404;2023-02-01T15:15:02;32.40;;;12.43;;
16766;SDS011;8501;49.926;8.404;2023-02-01T15:17:36;110.63;;;33.97;;
16766;SDS011;8501;49.926;8.404;2023-02-01T15:20:16;49.50;;;20.30;;
16766;SDS011;8501;49.926;8.404;2023-02-01T15:27:51;11.07;;;4.23;;
16766;SDS011;8501;49.926;8.404;2023-02-01T15:32:44;8.80;;;2.47;;
16766;SDS011;8501;49.926;8.404;2023-02-01T15:41:07;8.80;;;3.03;;
16766;SDS011;8501;49.926;8.404;2023-02-01T15:43:37;9.07;;;2.50;;
16766;SDS011;8501;49.926;8.404;2023-02-01T15:46:11;10.90;;;2.20;;
16766;SDS011;8501;49.926;8.404;2023-02-01T15:48:45;6.03;;;2.20;;
16766;SDS011;8501;49.926;8.404;2023-02-01T15:51:14;6.10;;;2.20;;
16766;SDS011;8501;49.926;8.404;2023-02-01T15:53:43;7.50;;;2.10;;
16766;SDS011;8501;49.926;8.404;2023-02-01T15:56:11;9.33;;;2.37;;
16766;SDS011;8501;49.926;8.404;2023-02-01T15:58:37;10.73;;;2.80;;
16766;SDS011;8501;49.926;8.404;2023-02-01T16:01:10;8.70;;;3.10;;
16766;SDS011;8501;49.926;8.404;2023-02-01T16:03:39;26.03;;;10.30;;
16766;SDS011;8501;49.926;8.404;2023-02-01T16:06:08;52.30;;;18.30;;
16766;SDS011;8501;49.926;8.404;2023-02-01T16:11:39;42.63;;;22.77;;
16766;SDS011;8501;49.926;8.404;2023-02-01T16:14:11;16.10;;;8.70;;
16766;SDS011;8501;49.926;8.404;2023-02-01T16:16:36;9.37;;;3.00;;
16766;SDS011;8501;49.926;8.404;2023-02-01T16:19:02;9.37;;;3.30;;
16766;SDS011;8501;49.926;8.404;2023-02-01T16:21:27;8.67;;;2.97;;
16766;SDS011;8501;49.926;8.404;2023-02-01T16:23:53;10.03;;;3.27;;
16766;SDS011;8501;49.926;8.404;2023-02-01T16:26:18;11.77;;;3.53;;
16766;SDS011;8501;49.926;8.404;2023-02-01T16:28:45;9.10;;;2.80;;
16766;SDS011;8501;49.926;8.404;2023-02-01T16:31:12;10.90;;;3.37;;
16766;SDS011;8501;49.926;8.404;2023-02-01T16:33:48;14.77;;;5.60;;
16766;SDS011;8501;49.926;8.404;2023-02-01T16:36:15;14.83;;;8.50;;
16766;SDS011;8501;49.926;8.404;2023-02-01T16:38:42;9.63;;;3.10;;
16766;SDS011;8501;49.926;8.404;2023-02-01T16:41:10;7.07;;;2.20;;
16766;SDS011;8501;49.926;8.404;2023-02-01T16:43:42;8.93;;;4.50;;
16766;SDS011;8501;49.926;8.404;2023-02-01T16:46:12;11.93;;;3.20;;
16766;SDS011;8501;49.926;8.404;2023-02-01T16:48:40;8.50;;;2.17;;
16766;SDS011;8501;49.926;8.404;2023-02-01T16:51:11;9.27;;;2.57;;
16766;SDS011;8501;49.926;8.404;2023-02-01T16:53:39;8.73;;;2.53;;
16766;SDS011;8501;49.926;8.404;2023-02-01T16:56:10;10.70;;;2.47;;
16766;SDS011;8501;49.926;8.404;2023-02-01T16:58:42;11.93;;;2.70;;
16766;SDS011;8501;49.926;8.404;2023-02-01T17:01:09;12.40;;;5.30;;
16766;SDS011;8501;49.926;8.404;2023-02-01T17:03:36;15.80;;;6.90;;
16766;SDS011;8501;49.926;8.404;2023-02-01T17:06:02;11.83;;;3.60;;
16766;SDS011;8501;49.926;8.404;2023-02-01T17:08:29;8.10;;;2.90;;
16766;SDS011;8501;49.926;8.404;2023-02-01T17:11:00;12.13;;;3.07;;
16766;SDS011;8501;49.926;8.404;2023-02-01T17:13:26;12.77;;;4.43;;
16766;SDS011;8501;49.926;8.404;2023-02-01T17:16:37;9.23;;;2.70;;
16766;SDS011;8501;49.926;8.404;2023-02-01T17:18:53;10.63;;;2.80;;
16766;SDS011;8501;49.926;8.404;2023-02-01T17:21:23;10.83;;;3.50;;
16766;SDS011;8501;49.926;8.404;2023-02-01T17:23:50;9.73;;;2.70;;
16766;SDS011;8501;49.926;8.404;2023-02-01T17:26:17;9.93;;;3.23;;
16766;SDS011;8501;49.926;8.404;2023-02-01T17:28:43;8.07;;;2.57;;
16766;SDS011;8501;49.926;8.404;2023-02-01T17:31:11;8.13;;;2.77;;
16766;SDS011;8501;49.926;8.404;2023-02-01T17:33:39;10.63;;;3.30;;
16766;SDS011;8501;49.926;8.404;2023-02-01T17:36:05;10.73;;;3.30;;
16766;SDS011;8501;49.926;8.404;2023-02-01T17:38:31;10.90;;;2.97;;
16766;SDS011;8501;49.926;8.404;2023-02-01T17:40:58;10.47;;;3.00;;
16766;SDS011;8501;49.926;8.404;2023-02-01T17:43:24;11.73;;;3.00;;
16766;SDS011;8501;49.926;8.404;2023-02-01T17:48:18;7.03;;;2.40;;
16766;SDS011;8501;49.926;8.404;2023-02-01T17:50:45;19.73;;;6.20;;
16766;SDS011;8501;49.926;8.404;2023-02-01T17:53:14;17.00;;;7.40;;
16766;SDS011;8501;49.926;8.404;2023-02-01T17:55:41;41.83;;;14.03;;
16766;SDS011;8501;49.926;8.404;2023-02-01T17:58:10;36.80;;;15.27;;
16766;SDS011;8501;49.926;8.404;2023-02-01T18:00:37;15.73;;;5.73;;